Time,TemperatureF,DewpointF,PressureIn,WindDirection,WindDirectionDegrees,WindSpeedMPH,WindSpeedGustMPH,Humidity,HourlyPrecipIn,Conditions,Clouds,dailyrainin,SolarRadiationWatts/m^2,SoftwareType,DateUTC
2013-07-15 00:11:00,56.0,40.0,-100.00,East,79,5.0,8.0,55,0.00,,,0.00,0.000000,,2013-07-15 06:11:00,
2013-07-15 00:22:00,56.0,40.0,-100.00,East,79,5.0,8.0,55,0.00,,,0.00,0.000000,,2013-07-15 06:22:00,
2013-07-15 00:32:00,56.0,40.0,-100.00,East,79,5.0,8.0,55,0.00,,,0.00,0.000000,,2013-07-15 06:32:00,
2013-07-15 00:42:00,56.0,40.0,-100.00,East,79,5.0,8.0,55,0.00,,,0.00,0.000000,,2013-07-15 06:42:00,
2013-07-15 00:52:00,54.0,40.0,-100.00,East,80,6.0,9.0,60,0.00,,,0.00,0.000000,,2013-07-15 06:52:00,
2013-07-15 01:21:00,54.0,40.0,-100.00,East,80,6.0,9.0,60,0.00,,,0.00,0.000000,,2013-07-15 07:21:00,
2013-07-15 01:32:00,54.0,40.0,-100.00,East,80,6.0,9.0,60,0.00,,,0.00,0.000000,,2013-07-15 07:32:00,
2013-07-15 01:43:00,54.0,40.0,-100.00,East,80,6.0,9.0,60,0.00,,,0.00,0.000000,,2013-07-15 07:43:00,
2013-07-15 01:52:00,52.0,39.0,-100.00,East,81,4.0,11.0,61,0.00,,,-99.99,0.000000,,2013-07-15 07:52:00,
2013-07-15 02:22:00,52.0,39.0,-100.00,East,81,4.0,11.0,61,0.00,,,-99.99,0.000000,,2013-07-15 08:22:00,
2013-07-15 02:32:00,52.0,39.0,-100.00,East,81,4.0,11.0,61,0.00,,,-99.99,0.000000,,2013-07-15 08:32:00,
2013-07-15 02:43:00,52.0,39.0,-100.00,East,81,4.0,11.0,61,0.00,,,-99.99,0.000000,,2013-07-15 08:43:00,
2013-07-15 02:52:00,51.0,39.0,-100.00,East,85,4.0,8.0,64,0.00,,,0.00,0.000000,,2013-07-15 08:52:00,
2013-07-15 03:11:00,51.0,39.0,-100.00,East,85,4.0,8.0,64,0.00,,,0.00,0.000000,,2013-07-15 09:11:00,
2013-07-15 03:22:00,51.0,39.0,-100.00,East,85,4.0,8.0,64,0.00,,,0.00,0.000000,,2013-07-15 09:22:00,
2013-07-15 03:32:00,51.0,39.0,-100.00,East,85,4.0,8.0,64,0.00,,,0.00,0.000000,,2013-07-15 09:32:00,
2013-07-15 03:42:00,51.0,39.0,-100.00,East,85,4.0,8.0,64,0.00,,,0.00,0.000000,,2013-07-15 09:42:00,
2013-07-15 03:52:00,50.0,39.0,-100.00,East,89,4.0,9.0,66,0.00,,,0.00,0.000000,,2013-07-15 09:52:00,
2013-07-15 04:11:00,50.0,39.0,-100.00,East,89,4.0,9.0,66,0.00,,,0.00,0.000000,,2013-07-15 10:11:00,
2013-07-15 04:21:00,50.0,39.0,-100.00,East,89,4.0,9.0,66,0.00,,,0.00,0.000000,,2013-07-15 10:21:00,
2013-07-15 04:32:00,50.0,39.0,-100.00,East,89,4.0,9.0,66,0.00,,,0.00,0.000000,,2013-07-15 10:32:00,
2013-07-15 04:42:00,50.0,39.0,-100.00,East,89,4.0,9.0,66,0.00,,,0.00,0.000000,,2013-07-15 10:42:00,
2013-07-15 04:52:00,48.0,40.0,-100.00,East,82,3.0,6.0,73,0.00,,,0.00,0.000000,,2013-07-15 10:52:00,
2013-07-15 05:11:00,48.0,40.0,-100.00,East,82,3.0,6.0,73,0.00,,,0.00,0.000000,,2013-07-15 11:11:00,
2013-07-15 05:22:00,48.0,40.0,-100.00,East,82,3.0,6.0,73,0.00,,,0.00,0.000000,,2013-07-15 11:22:00,
2013-07-15 05:32:00,48.0,40.0,-100.00,East,82,3.0,6.0,73,0.00,,,0.00,0.000000,,2013-07-15 11:32:00,
2013-07-15 05:42:00,48.0,40.0,-100.00,East,82,3.0,6.0,73,0.00,,,0.00,0.000000,,2013-07-15 11:42:00,
2013-07-15 05:52:00,47.0,40.0,-100.00,East,87,3.0,8.0,76,0.00,,,0.00,0.000000,,2013-07-15 11:52:00,
2013-07-15 06:11:00,47.0,40.0,-100.00,East,87,3.0,8.0,76,0.00,,,0.00,0.000000,,2013-07-15 12:11:00,
2013-07-15 06:22:00,47.0,40.0,-100.00,East,87,3.0,8.0,76,0.00,,,0.00,0.000000,,2013-07-15 12:22:00,
2013-07-15 06:32:00,47.0,40.0,-100.00,East,87,3.0,8.0,76,0.00,,,0.00,0.000000,,2013-07-15 12:32:00,
2013-07-15 06:42:00,47.0,40.0,-100.00,East,87,3.0,8.0,76,0.00,,,0.00,0.000000,,2013-07-15 12:42:00,
2013-07-15 06:52:00,49.0,41.0,-100.00,East,88,2.0,5.0,75,0.00,,,0.00,32.000000,,2013-07-15 12:52:00,
2013-07-15 07:22:00,49.0,41.0,-100.00,East,88,2.0,5.0,75,0.00,,,0.00,32.000000,,2013-07-15 13:22:00,
2013-07-15 07:32:00,49.0,41.0,-100.00,East,88,2.0,5.0,75,0.00,,,0.00,32.000000,,2013-07-15 13:32:00,
2013-07-15 07:43:00,49.0,41.0,-100.00,East,88,2.0,5.0,75,0.00,,,0.00,32.000000,,2013-07-15 13:43:00,
2013-07-15 08:52:00,65.0,48.0,-100.00,ENE,62,2.0,7.0,55,-99.99,,,0.00,388.000000,,2013-07-15 14:52:00,
2013-07-15 09:35:00,65.0,48.0,-100.00,ENE,62,2.0,7.0,55,-99.99,,,0.00,388.000000,,2013-07-15 15:35:00,
2013-07-15 09:44:00,65.0,48.0,-100.00,ENE,62,2.0,7.0,55,-99.99,,,0.00,388.000000,,2013-07-15 15:44:00,
2013-07-15 09:52:00,69.0,49.0,-100.00,NW,324,3.0,6.0,49,0.00,,,0.00,572.000000,,2013-07-15 15:52:00,
2013-07-15 10:24:00,69.0,49.0,-100.00,NW,324,3.0,6.0,49,0.00,,,0.00,572.000000,,2013-07-15 16:24:00,
2013-07-15 10:32:00,69.0,49.0,-100.00,NW,324,3.0,6.0,49,0.00,,,0.00,572.000000,,2013-07-15 16:32:00,
2013-07-15 10:44:00,69.0,49.0,-100.00,NW,324,3.0,6.0,49,0.00,,,0.00,572.000000,,2013-07-15 16:44:00,
2013-07-15 10:52:00,75.0,47.0,-100.00,NW,316,0.0,6.0,37,0.00,,,0.00,738.000000,,2013-07-15 16:52:00,
2013-07-15 11:35:00,75.0,47.0,-100.00,NW,316,0.0,6.0,37,0.00,,,0.00,738.000000,,2013-07-15 17:35:00,
2013-07-15 11:45:00,75.0,47.0,-100.00,NW,316,0.0,6.0,37,0.00,,,0.00,738.000000,,2013-07-15 17:45:00,
2013-07-15 12:24:00,76.0,43.0,-100.00,West,264,5.0,11.0,31,0.00,,,0.00,868.000000,,2013-07-15 18:24:00,
2013-07-15 12:34:00,76.0,43.0,-100.00,West,264,5.0,11.0,31,0.00,,,0.00,868.000000,,2013-07-15 18:34:00,
2013-07-15 12:45:00,76.0,43.0,-100.00,West,264,5.0,11.0,31,0.00,,,0.00,868.000000,,2013-07-15 18:45:00,
2013-07-15 12:52:00,80.0,37.0,-100.00,WSW,253,2.0,9.0,21,0.00,,,0.00,951.000000,,2013-07-15 18:52:00,
2013-07-15 13:11:00,80.0,37.0,-100.00,WSW,253,2.0,9.0,21,0.00,,,0.00,951.000000,,2013-07-15 19:11:00,
2013-07-15 13:24:00,80.0,37.0,-100.00,WSW,253,2.0,9.0,21,0.00,,,0.00,951.000000,,2013-07-15 19:24:00,
2013-07-15 13:34:00,80.0,37.0,-100.00,WSW,253,2.0,9.0,21,0.00,,,0.00,951.000000,,2013-07-15 19:34:00,
2013-07-15 13:44:00,80.0,37.0,-100.00,WSW,253,2.0,9.0,21,0.00,,,0.00,951.000000,,2013-07-15 19:44:00,
2013-07-15 13:52:00,81.0,31.0,-100.00,West,275,3.0,11.0,16,0.00,,,0.00,985.000000,,2013-07-15 19:52:00,
2013-07-15 14:24:00,81.0,31.0,-100.00,West,275,3.0,11.0,16,0.00,,,0.00,985.000000,,2013-07-15 20:24:00,
2013-07-15 14:34:00,81.0,31.0,-100.00,West,275,3.0,11.0,16,0.00,,,0.00,985.000000,,2013-07-15 20:34:00,
2013-07-15 14:43:00,81.0,31.0,-100.00,West,275,3.0,11.0,16,0.00,,,0.00,985.000000,,2013-07-15 20:43:00,
2013-07-15 14:52:00,84.0,33.0,-100.00,ENE,68,3.0,11.0,16,0.00,,,0.00,973.000000,,2013-07-15 20:52:00,
2013-07-15 15:12:00,84.0,33.0,-100.00,ENE,68,3.0,11.0,16,0.00,,,0.00,973.000000,,2013-07-15 21:12:00,
2013-07-15 15:23:00,84.0,33.0,-100.00,ENE,68,3.0,11.0,16,0.00,,,0.00,973.000000,,2013-07-15 21:23:00,
2013-07-15 15:34:00,84.0,33.0,-100.00,ENE,68,3.0,11.0,16,0.00,,,0.00,973.000000,,2013-07-15 21:34:00,
2013-07-15 15:44:00,84.0,33.0,-100.00,ENE,68,3.0,11.0,16,0.00,,,0.00,973.000000,,2013-07-15 21:44:00,
2013-07-15 15:52:00,82.0,34.0,-100.00,WNW,290,5.0,12.0,18,0.00,,,-99.99,640.000000,,2013-07-15 21:52:00,
2013-07-15 16:22:00,82.0,34.0,-100.00,WNW,290,5.0,12.0,18,0.00,,,-99.99,640.000000,,2013-07-15 22:22:00,
2013-07-15 16:34:00,82.0,34.0,-100.00,WNW,290,5.0,12.0,18,0.00,,,-99.99,640.000000,,2013-07-15 22:34:00,
2013-07-15 16:43:00,82.0,34.0,-100.00,WNW,290,5.0,12.0,18,0.00,,,-99.99,640.000000,,2013-07-15 22:43:00,
2013-07-15 16:52:00,78.0,34.0,-100.00,WNW,302,7.0,14.0,20,0.00,,,0.00,598.000000,,2013-07-15 22:52:00,
2013-07-15 17:44:00,78.0,34.0,-100.00,WNW,302,7.0,14.0,20,0.00,,,0.00,598.000000,,2013-07-15 23:44:00,
2013-07-15 17:52:00,83.0,36.0,-100.00,WNW,286,2.0,13.0,19,0.00,,,0.00,582.000000,,2013-07-15 23:52:00,
2013-07-15 18:24:00,83.0,36.0,-100.00,WNW,286,2.0,13.0,19,0.00,,,0.00,582.000000,,2013-07-16 00:24:00,
2013-07-15 18:33:00,83.0,36.0,-100.00,WNW,286,2.0,13.0,19,0.00,,,0.00,582.000000,,2013-07-16 00:33:00,
2013-07-15 18:52:00,80.0,33.0,-100.00,SW,234,4.0,10.0,18,0.00,,,0.00,437.000000,,2013-07-16 00:52:00,
2013-07-15 19:25:00,80.0,33.0,-100.00,SW,234,4.0,10.0,18,0.00,,,0.00,437.000000,,2013-07-16 01:25:00,
2013-07-15 19:33:00,80.0,33.0,-100.00,SW,234,4.0,10.0,18,0.00,,,0.00,437.000000,,2013-07-16 01:33:00,
2013-07-15 19:44:00,80.0,33.0,-100.00,SW,234,4.0,10.0,18,0.00,,,0.00,437.000000,,2013-07-16 01:44:00,
2013-07-15 19:52:00,81.0,33.0,-100.00,NW,312,1.0,7.0,18,0.00,,,0.00,243.000000,,2013-07-16 01:52:00,
2013-07-15 20:24:00,81.0,33.0,-100.00,NW,312,1.0,7.0,18,0.00,,,0.00,243.000000,,2013-07-16 02:24:00,
2013-07-15 20:35:00,81.0,33.0,-100.00,NW,312,1.0,7.0,18,0.00,,,0.00,243.000000,,2013-07-16 02:35:00,
2013-07-15 20:52:00,73.0,32.0,-100.00,NNE,12,1.0,4.0,22,0.00,,,0.00,43.000000,,2013-07-16 02:52:00,
2013-07-15 21:13:00,73.0,32.0,-100.00,NNE,12,1.0,4.0,22,0.00,,,0.00,43.000000,,2013-07-16 03:13:00,
2013-07-15 21:35:00,73.0,32.0,-100.00,NNE,12,1.0,4.0,22,0.00,,,0.00,43.000000,,2013-07-16 03:35:00,
2013-07-15 21:44:00,73.0,32.0,-100.00,NNE,12,1.0,4.0,22,0.00,,,0.00,43.000000,,2013-07-16 03:44:00,